sensor_id;sensor_type;location;lat;lon;timestamp;P1;durP1;ratioP1;P2;durP2;ratioP2
45540;SDS011;31265;49.680;8.608;2023-09-19T00:00:47;1.23;;;0.28;;
45540;SDS011;31265;49.680;8.608;2023-09-19T00:03:16;0.80;;;0.43;;
45540;SDS011;31265;49.680;8.608;2023-09-19T00:05:45;1.25;;;0.45;;
45540;SDS011;31265;49.680;8.608;2023-09-19T00:08:14;1.58;;;0.40;;
45540;SDS011;31265;49.680;8.608;2023-09-19T00:10:43;2.08;;;0.40;;
45540;SDS011;31265;49.680;8.608;2023-09-19T00:13:13;0.50;;;0.20;;
45540;SDS011;31265;49.680;8.608;2023-09-19T00:15:44;1.05;;;0.40;;
45540;SDS011;31265;49.680;8.608;2023-09-19T00:18:16;2.53;;;0.50;;
45540;SDS011;31265;49.680;8.608;2023-09-19T00:20:46;0.40;;;0.20;;
45540;SDS011;31265;49.680;8.608;2023-09-19T00:23:17;0.68;;;0.25;;
45540;SDS011;31265;49.680;8.608;2023-09-19T00:25:47;0.70;;;0.25;;
45540;SDS011;31265;49.680;8.608;2023-09-19T00:28:19;4.68;;;0.40;;
45540;SDS011;31265;49.680;8.608;2023-09-19T00:30:47;1.23;;;0.40;;
45540;SDS011;31265;49.680;8.608;2023-09-19T00:33:18;0.50;;;0.30;;
45540;SDS011;31265;49.680;8.608;2023-09-19T00:35:47;0.43;;;0.20;;
45540;SDS011;31265;49.680;8.608;2023-09-19T00:38:16;1.63;;;0.80;;
45540;SDS011;31265;49.680;8.608;2023-09-19T00:40:48;1.45;;;0.30;;
45540;SDS011;31265;49.680;8.608;2023-09-19T00:43:19;1.20;;;0.32;;
45540;SDS011;31265;49.680;8.608;2023-09-19T00:45:50;0.55;;;0.22;;
45540;SDS011;31265;49.680;8.608;2023-09-19T00:48:20;1.40;;;0.38;;
45540;SDS011;31265;49.680;8.608;2023-09-19T00:50:50;3.58;;;0.95;;
45540;SDS011;31265;49.680;8.608;2023-09-19T00:53:21;0.77;;;0.20;;
45540;SDS011;31265;49.680;8.608;2023-09-19T00:55:53;0.90;;;0.40;;
45540;SDS011;31265;49.680;8.608;2023-09-19T00:58:24;2.65;;;0.60;;
45540;SDS011;31265;49.680;8.608;2023-09-19T01:00:53;0.88;;;0.22;;
45540;SDS011;31265;49.680;8.608;2023-09-19T01:05:51;6.43;;;0.40;;
45540;SDS011;31265;49.680;8.608;2023-09-19T01:08:19;2.72;;;0.30;;
45540;SDS011;31265;49.680;8.608;2023-09-19T01:10:51;3.63;;;1.20;;
45540;SDS011;31265;49.680;8.608;2023-09-19T01:13:31;4.18;;;0.82;;
45540;SDS011;31265;49.680;8.608;2023-09-19T01:16:11;1.05;;;0.30;;
45540;SDS011;31265;49.680;8.608;2023-09-19T01:18:49;1.52;;;0.80;;
45540;SDS011;31265;49.680;8.608;2023-09-19T01:21:26;1.95;;;0.40;;
45540;SDS011;31265;49.680;8.608;2023-09-19T01:27:06;2.47;;;0.73;;
45540;SDS011;31265;49.680;8.608;2023-09-19T01:30:08;0.98;;;0.47;;
45540;SDS011;31265;49.680;8.608;2023-09-19T01:32:38;1.38;;;0.60;;
45540;SDS011;31265;49.680;8.608;2023-09-19T01:35:08;0.90;;;0.45;;
45540;SDS011;31265;49.680;8.608;2023-09-19T01:37:39;1.20;;;0.55;;
45540;SDS011;31265;49.680;8.608;2023-09-19T01:40:11;1.58;;;0.50;;
45540;SDS011;31265;49.680;8.608;2023-09-19T01:42:45;0.88;;;0.32;;
45540;SDS011;31265;49.680;8.608;2023-09-19T01:45:22;3.47;;;0.70;;
45540;SDS011;31265;49.680;8.608;2023-09-19T01:47:58;1.53;;;0.50;;
45540;SDS011;31265;49.680;8.608;2023-09-19T01:50:34;1.85;;;0.63;;
45540;SDS011;31265;49.680;8.608;2023-09-19T01:53:10;1.50;;;0.38;;
45540;SDS011;31265;49.680;8.608;2023-09-19T01:55:48;1.75;;;0.50;;
45540;SDS011;31265;49.680;8.608;2023-09-19T01:58:20;2.45;;;0.60;;
45540;SDS011;31265;49.680;8.608;2023-09-19T02:00:59;2.22;;;0.60;;
45540;SDS011;31265;49.680;8.608;2023-09-19T02:03:29;2.00;;;0.60;;
45540;SDS011;31265;49.680;8.608;2023-09-19T02:05:59;0.40;;;0.17;;
45540;SDS011;31265;49.680;8.608;2023-09-19T02:08:27;7.10;;;0.80;;
45540;SDS011;31265;49.680;8.608;2023-09-19T02:10:57;2.95;;;0.77;;
45540;SDS011;31265;49.680;8.608;2023-09-19T02:13:26;0.88;;;0.50;;
45540;SDS011;31265;49.680;8.608;2023-09-19T02:15:55;1.13;;;0.40;;
45540;SDS011;31265;49.680;8.608;2023-09-19T02:18:25;2.17;;;0.80;;
45540;SDS011;31265;49.680;8.608;2023-09-19T02:20:55;2.25;;;0.77;;
45540;SDS011;31265;49.680;8.608;2023-09-19T02:23:24;1.33;;;0.50;;
45540;SDS011;31265;49.680;8.608;2023-09-19T02:25:53;1.25;;;0.60;;
45540;SDS011;31265;49.680;8.608;2023-09-19T02:28:21;1.80;;;0.50;;
45540;SDS011;31265;49.680;8.608;2023-09-19T02:30:50;1.43;;;0.30;;
45540;SDS011;31265;49.680;8.608;2023-09-19T02:33:19;1.95;;;0.85;;
45540;SDS011;31265;49.680;8.608;2023-09-19T02:35:55;0.80;;;0.47;;
45540;SDS011;31265;49.680;8.608;2023-09-19T02:38:25;2.25;;;0.88;;
45540;SDS011;31265;49.680;8.608;2023-09-19T02:40:54;1.47;;;0.67;;
45540;SDS011;31265;49.680;8.608;2023-09-19T02:43:23;3.35;;;0.52;;
45540;SDS011;31265;49.680;8.608;2023-09-19T02:45:52;1.48;;;0.40;;
45540;SDS011;31265;49.680;8.608;2023-09-19T02:48:21;1.38;;;0.60;;
45540;SDS011;31265;49.680;8.608;2023-09-19T02:50:50;6.78;;;0.85;;
45540;SDS011;31265;49.680;8.608;2023-09-19T02:53:21;5.35;;;0.70;;
45540;SDS011;31265;49.680;8.608;2023-09-19T02:55:51;1.33;;;0.30;;
45540;SDS011;31265;49.680;8.608;2023-09-19T03:00:49;3.13;;;0.57;;
45540;SDS011;31265;49.680;8.608;2023-09-19T03:03:18;1.40;;;0.57;;
45540;SDS011;31265;49.680;8.608;2023-09-19T03:05:47;3.88;;;0.95;;
45540;SDS011;31265;49.680;8.608;2023-09-19T03:08:18;1.85;;;0.80;;
45540;SDS011;31265;49.680;8.608;2023-09-19T03:10:49;1.35;;;0.55;;
45540;SDS011;31265;49.680;8.608;2023-09-19T03:13:17;2.70;;;0.80;;
45540;SDS011;31265;49.680;8.608;2023-09-19T03:15:47;1.05;;;0.40;;
45540;SDS011;31265;49.680;8.608;2023-09-19T03:18:22;3.33;;;0.63;;
45540;SDS011;31265;49.680;8.608;2023-09-19T03:20:53;2.40;;;0.90;;
45540;SDS011;31265;49.680;8.608;2023-09-19T03:23:24;4.22;;;0.70;;
45540;SDS011;31265;49.680;8.608;2023-09-19T03:25:54;1.38;;;0.60;;
45540;SDS011;31265;49.680;8.608;2023-09-19T03:28:23;1.75;;;0.70;;
45540;SDS011;31265;49.680;8.608;2023-09-19T03:30:58;4.40;;;1.00;;
45540;SDS011;31265;49.680;8.608;2023-09-19T03:33:29;1.27;;;0.70;;
45540;SDS011;31265;49.680;8.608;2023-09-19T03:36:01;2.38;;;0.68;;
45540;SDS011;31265;49.680;8.608;2023-09-19T03:38:32;1.77;;;0.65;;
45540;SDS011;31265;49.680;8.608;2023-09-19T03:41:03;2.20;;;0.60;;
45540;SDS011;31265;49.680;8.608;2023-09-19T03:43:35;3.13;;;0.82;;
45540;SDS011;31265;49.680;8.608;2023-09-19T03:46:04;2.17;;;0.98;;
45540;SDS011;31265;49.680;8.608;2023-09-19T03:48:34;4.38;;;1.30;;
45540;SDS011;31265;49.680;8.608;2023-09-19T03:51:03;1.75;;;0.73;;
45540;SDS011;31265;49.680;8.608;2023-09-19T03:53:32;3.55;;;0.80;;
45540;SDS011;31265;49.680;8.608;2023-09-19T03:56:00;1.67;;;0.60;;
45540;SDS011;31265;49.680;8.608;2023-09-19T03:58:33;2.17;;;0.98;;
45540;SDS011;31265;49.680;8.608;2023-09-19T04:01:06;2.05;;;0.80;;
45540;SDS011;31265;49.680;8.608;2023-09-19T04:03:36;2.20;;;0.85;;
45540;SDS011;31265;49.680;8.608;2023-09-19T04:06:13;1.98;;;0.88;;
45540;SDS011;31265;49.680;8.608;2023-09-19T04:08:43;1.55;;;0.70;;
45540;SDS011;31265;49.680;8.608;2023-09-19T04:11:16;2.05;;;0.82;;
45540;SDS011;31265;49.680;8.608;2023-09-19T04:13:45;3.08;;;1.40;;
45540;SDS011;31265;49.680;8.608;2023-09-19T04:16:14;3.28;;;1.25;;
45540;SDS011;31265;49.680;8.608;2023-09-19T04:18:43;5.30;;;1.38;;
45540;SDS011;31265;49.680;8.608;2023-09-19T04:21:12;2.63;;;1.13;;
45540;SDS011;31265;49.680;8.608;2023-09-19T04:23:41;2.63;;;1.23;;
45540;SDS011;31265;49.680;8.608;2023-09-19T04:26:09;2.83;;;1.20;;
45540;SDS011;31265;49.680;8.608;2023-09-19T04:28:40;3.47;;;1.20;;
45540;SDS011;31265;49.680;8.608;2023-09-19T04:31:08;4.25;;;1.35;;
45540;SDS011;31265;49.680;8.608;2023-09-19T04:33:38;3.08;;;1.42;;
45540;SDS011;31265;49.680;8.608;2023-09-19T04:36:07;3.90;;;1.85;;
45540;SDS011;31265;49.680;8.608;2023-09-19T04:38:56;2.33;;;1.40;;
45540;SDS011;31265;49.680;8.608;2023-09-19T04:41:25;6.47;;;1.50;;
45540;SDS011;31265;49.680;8.608;2023-09-19T04:43:55;3.38;;;1.40;;
45540;SDS011;31265;49.680;8.608;2023-09-19T04:46:24;2.25;;;1.40;;
45540;SDS011;31265;49.680;8.608;2023-09-19T04:48:52;2.35;;;1.10;;
45540;SDS011;31265;49.680;8.608;2023-09-19T04:51:22;2.88;;;1.50;;
45540;SDS011;31265;49.680;8.608;2023-09-19T04:53:50;2.42;;;1.25;;
45540;SDS011;31265;49.680;8.608;2023-09-19T04:56:19;4.70;;;1.50;;
45540;SDS011;31265;49.680;8.608;2023-09-19T04:58:48;3.25;;;1.38;;
45540;SDS011;31265;49.680;8.608;2023-09-19T05:01:18;4.00;;;1.13;;
45540;SDS011;31265;49.680;8.608;2023-09-19T05:03:49;3.65;;;1.50;;
45540;SDS011;31265;49.680;8.608;2023-09-19T05:06:20;2.70;;;1.35;;
45540;SDS011;31265;49.680;8.608;2023-09-19T05:08:49;3.90;;;1.60;;
45540;SDS011;31265;49.680;8.608;2023-09-19T05:11:19;1.80;;;0.90;;
45540;SDS011;31265;49.680;8.608;2023-09-19T05:13:50;2.80;;;1.27;;
45540;SDS011;31265;49.680;8.608;2023-09-19T05:16:21;3.45;;;1.27;;
45540;SDS011;31265;49.680;8.608;2023-09-19T05:18:50;2.47;;;1.42;;
45540;SDS011;31265;49.680;8.608;2023-09-19T05:21:19;4.10;;;1.75;;
45540;SDS011;31265;49.680;8.608;2023-09-19T05:23:51;3.92;;;1.40;;
45540;SDS011;31265;49.680;8.608;2023-09-19T05:26:20;4.88;;;1.48;;
45540;SDS011;31265;49.680;8.608;2023-09-19T05:28:48;5.18;;;1.90;;
45540;SDS011;31265;49.680;8.608;2023-09-19T05:31:17;3.25;;;1.60;;
45540;SDS011;31265;49.680;8.608;2023-09-19T05:33:47;3.22;;;1.65;;
45540;SDS011;31265;49.680;8.608;2023-09-19T05:36:17;5.55;;;2.00;;
45540;SDS011;31265;49.680;8.608;2023-09-19T05:38:45;7.80;;;1.88;;
45540;SDS011;31265;49.680;8.608;2023-09-19T05:41:17;5.32;;;1.60;;
45540;SDS011;31265;49.680;8.608;2023-09-19T05:43:46;3.75;;;1.40;;
45540;SDS011;31265;49.680;8.608;2023-09-19T05:46:17;3.45;;;1.80;;
45540;SDS011;31265;49.680;8.608;2023-09-19T05:48:46;4.95;;;1.60;;
45540;SDS011;31265;49.680;8.608;2023-09-19T05:51:16;2.25;;;1.17;;
45540;SDS011;31265;49.680;8.608;2023-09-19T05:53:50;6.93;;;1.45;;
45540;SDS011;31265;49.680;8.608;2023-09-19T05:56:19;2.47;;;1.63;;
45540;SDS011;31265;49.680;8.608;2023-09-19T05:58:47;4.95;;;1.83;;
45540;SDS011;31265;49.680;8.608;2023-09-19T06:01:17;3.38;;;1.63;;
45540;SDS011;31265;49.680;8.608;2023-09-19T06:03:48;7.30;;;1.67;;
45540;SDS011;31265;49.680;8.608;2023-09-19T06:06:16;3.13;;;1.45;;
45540;SDS011;31265;49.680;8.608;2023-09-19T06:08:45;3.63;;;1.38;;
45540;SDS011;31265;49.680;8.608;2023-09-19T06:11:17;3.20;;;1.27;;
45540;SDS011;31265;49.680;8.608;2023-09-19T06:13:47;3.47;;;1.38;;
45540;SDS011;31265;49.680;8.608;2023-09-19T06:16:16;7.50;;;1.35;;
45540;SDS011;31265;49.680;8.608;2023-09-19T06:18:48;3.58;;;1.58;;
45540;SDS011;31265;49.680;8.608;2023-09-19T06:21:19;3.13;;;1.42;;
45540;SDS011;31265;49.680;8.608;2023-09-19T06:23:48;1.80;;;1.02;;
45540;SDS011;31265;49.680;8.608;2023-09-19T06:26:18;2.42;;;0.95;;
45540;SDS011;31265;49.680;8.608;2023-09-19T06:28:47;4.37;;;1.00;;
45540;SDS011;31265;49.680;8.608;2023-09-19T06:31:16;2.60;;;1.33;;
45540;SDS011;31265;49.680;8.608;2023-09-19T06:36:15;3.05;;;1.00;;
45540;SDS011;31265;49.680;8.608;2023-09-19T06:38:44;2.92;;;0.90;;
45540;SDS011;31265;49.680;8.608;2023-09-19T06:41:12;2.47;;;0.80;;
45540;SDS011;31265;49.680;8.608;2023-09-19T06:43:43;3.47;;;0.98;;
45540;SDS011;31265;49.680;8.608;2023-09-19T06:46:12;3.00;;;0.95;;
45540;SDS011;31265;49.680;8.608;2023-09-19T06:48:41;8.87;;;1.53;;
45540;SDS011;31265;49.680;8.608;2023-09-19T06:51:11;1.40;;;0.70;;
45540;SDS011;31265;49.680;8.608;2023-09-19T06:53:44;5.88;;;1.15;;
45540;SDS011;31265;49.680;8.608;2023-09-19T06:56:12;2.13;;;0.60;;
45540;SDS011;31265;49.680;8.608;2023-09-19T06:58:41;5.28;;;1.63;;
45540;SDS011;31265;49.680;8.608;2023-09-19T07:01:11;2.88;;;0.68;;
45540;SDS011;31265;49.680;8.608;2023-09-19T07:03:42;1.83;;;0.77;;
45540;SDS011;31265;49.680;8.608;2023-09-19T07:06:12;1.70;;;1.00;;
45540;SDS011;31265;49.680;8.608;2023-09-19T07:08:43;1.92;;;0.77;;
45540;SDS011;31265;49.680;8.608;2023-09-19T07:11:12;3.05;;;0.93;;
45540;SDS011;31265;49.680;8.608;2023-09-19T07:13:41;1.27;;;0.50;;
45540;SDS011;31265;49.680;8.608;2023-09-19T07:16:10;2.05;;;0.63;;
45540;SDS011;31265;49.680;8.608;2023-09-19T07:18:54;4.10;;;0.68;;
45540;SDS011;31265;49.680;8.608;2023-09-19T07:21:23;3.10;;;0.40;;
45540;SDS011;31265;49.680;8.608;2023-09-19T07:23:53;4.15;;;0.57;;
45540;SDS011;31265;49.680;8.608;2023-09-19T07:26:22;1.52;;;0.60;;
45540;SDS011;31265;49.680;8.608;2023-09-19T07:28:50;3.22;;;0.50;;
45540;SDS011;31265;49.680;8.608;2023-09-19T07:31:20;3.20;;;0.68;;
45540;SDS011;31265;49.680;8.608;2023-09-19T07:33:49;3.22;;;0.88;;
45540;SDS011;31265;49.680;8.608;2023-09-19T07:36:18;1.92;;;0.93;;
45540;SDS011;31265;49.680;8.608;2023-09-19T07:38:46;1.48;;;0.40;;
45540;SDS011;31265;49.680;8.608;2023-09-19T07:41:17;0.87;;;0.50;;
45540;SDS011;31265;49.680;8.608;2023-09-19T07:43:45;2.10;;;0.55;;
45540;SDS011;31265;49.680;8.608;2023-09-19T07:46:14;1.95;;;0.65;;
45540;SDS011;31265;49.680;8.608;2023-09-19T07:48:42;2.05;;;0.75;;
45540;SDS011;31265;49.680;8.608;2023-09-19T07:51:15;1.25;;;0.50;;
45540;SDS011;31265;49.680;8.608;2023-09-19T07:53:44;1.33;;;0.40;;
45540;SDS011;31265;49.680;8.608;2023-09-19T07:56:12;2.97;;;0.80;;
45540;SDS011;31265;49.680;8.608;2023-09-19T07:58:42;0.93;;;0.30;;
45540;SDS011;31265;49.680;8.608;2023-09-19T08:01:12;3.47;;;0.82;;
45540;SDS011;31265;49.680;8.608;2023-09-19T08:03:44;3.20;;;0.77;;
45540;SDS011;31265;49.680;8.608;2023-09-19T08:06:13;1.85;;;0.45;;
45540;SDS011;31265;49.680;8.608;2023-09-19T08:08:42;3.65;;;0.65;;
45540;SDS011;31265;49.680;8.608;2023-09-19T08:11:10;0.80;;;0.40;;
45540;SDS011;31265;49.680;8.608;2023-09-19T08:13:39;2.97;;;0.50;;
45540;SDS011;31265;49.680;8.608;2023-09-19T08:16:12;4.00;;;0.70;;
45540;SDS011;31265;49.680;8.608;2023-09-19T08:18:42;1.17;;;0.35;;
45540;SDS011;31265;49.680;8.608;2023-09-19T08:21:11;1.40;;;0.57;;
45540;SDS011;31265;49.680;8.608;2023-09-19T08:23:43;3.20;;;0.63;;
45540;SDS011;31265;49.680;8.608;2023-09-19T08:26:12;4.95;;;0.98;;
45540;SDS011;31265;49.680;8.608;2023-09-19T08:28:41;2.33;;;0.30;;
45540;SDS011;31265;49.680;8.608;2023-09-19T08:31:10;1.95;;;0.80;;
45540;SDS011;31265;49.680;8.608;2023-09-19T08:36:11;1.40;;;0.47;;
45540;SDS011;31265;49.680;8.608;2023-09-19T08:38:41;1.45;;;0.28;;
45540;SDS011;31265;49.680;8.608;2023-09-19T08:41:09;2.92;;;0.60;;
45540;SDS011;31265;49.680;8.608;2023-09-19T08:43:38;4.93;;;1.10;;
45540;SDS011;31265;49.680;8.608;2023-09-19T08:46:09;3.72;;;0.75;;
45540;SDS011;31265;49.680;8.608;2023-09-19T08:48:44;2.92;;;0.82;;
45540;SDS011;31265;49.680;8.608;2023-09-19T08:51:18;1.88;;;0.52;;
45540;SDS011;31265;49.680;8.608;2023-09-19T08:53:54;4.93;;;0.80;;
45540;SDS011;31265;49.680;8.608;2023-09-19T08:56:31;1.55;;;0.40;;
45540;SDS011;31265;49.680;8.608;2023-09-19T08:59:02;1.50;;;0.30;;
45540;SDS011;31265;49.680;8.608;2023-09-19T09:01:31;1.45;;;0.50;;
45540;SDS011;31265;49.680;8.608;2023-09-19T09:04:02;2.78;;;0.80;;
45540;SDS011;31265;49.680;8.608;2023-09-19T09:06:31;4.40;;;0.95;;
45540;SDS011;31265;49.680;8.608;2023-09-19T09:09:03;2.88;;;1.05;;
45540;SDS011;31265;49.680;8.608;2023-09-19T09:11:32;2.63;;;0.85;;
45540;SDS011;31265;49.680;8.608;2023-09-19T09:14:01;2.10;;;0.80;;
45540;SDS011;31265;49.680;8.608;2023-09-19T09:16:30;2.78;;;0.57;;
45540;SDS011;31265;49.680;8.608;2023-09-19T09:18:59;1.48;;;0.60;;
45540;SDS011;31265;49.680;8.608;2023-09-19T09:21:29;2.17;;;0.50;;
45540;SDS011;31265;49.680;8.608;2023-09-19T09:26:54;2.15;;;0.70;;
45540;SDS011;31265;49.680;8.608;2023-09-19T09:29:40;4.80;;;0.73;;
45540;SDS011;31265;49.680;8.608;2023-09-19T09:32:16;2.47;;;0.70;;
45540;SDS011;31265;49.680;8.608;2023-09-19T09:34:49;2.63;;;0.70;;
45540;SDS011;31265;49.680;8.608;2023-09-19T09:37:20;5.13;;;0.75;;
45540;SDS011;31265;49.680;8.608;2023-09-19T09:39:50;5.75;;;0.80;;
45540;SDS011;31265;49.680;8.608;2023-09-19T09:42:28;1.73;;;0.40;;
45540;SDS011;31265;49.680;8.608;2023-09-19T09:45:13;3.08;;;0.95;;
45540;SDS011;31265;49.680;8.608;2023-09-19T09:47:43;4.13;;;0.50;;
45540;SDS011;31265;49.680;8.608;2023-09-19T09:50:26;2.40;;;0.80;;
45540;SDS011;31265;49.680;8.608;2023-09-19T09:53:19;2.13;;;0.50;;
45540;SDS011;31265;49.680;8.608;2023-09-19T09:55:58;2.55;;;0.75;;
45540;SDS011;31265;49.680;8.608;2023-09-19T09:58:34;2.97;;;0.88;;
45540;SDS011;31265;49.680;8.608;2023-09-19T10:01:04;2.55;;;0.70;;
45540;SDS011;31265;49.680;8.608;2023-09-19T10:03:37;2.88;;;0.68;;
45540;SDS011;31265;49.680;8.608;2023-09-19T10:06:10;3.22;;;1.23;;
45540;SDS011;31265;49.680;8.608;2023-09-19T10:08:57;1.33;;;0.47;;
45540;SDS011;31265;49.680;8.608;2023-09-19T10:11:39;1.40;;;0.45;;
45540;SDS011;31265;49.680;8.608;2023-09-19T10:14:10;1.83;;;0.73;;
45540;SDS011;31265;49.680;8.608;2023-09-19T10:16:41;2.85;;;0.80;;
45540;SDS011;31265;49.680;8.608;2023-09-19T10:19:15;4.15;;;0.77;;
45540;SDS011;31265;49.680;8.608;2023-09-19T10:21:54;2.78;;;0.55;;
45540;SDS011;31265;49.680;8.608;2023-09-19T10:24:25;3.00;;;0.75;;
45540;SDS011;31265;49.680;8.608;2023-09-19T10:26:59;3.13;;;0.60;;
45540;SDS011;31265;49.680;8.608;2023-09-19T10:29:28;1.70;;;0.40;;
45540;SDS011;31265;49.680;8.608;2023-09-19T10:32:03;3.20;;;0.88;;
45540;SDS011;31265;49.680;8.608;2023-09-19T10:34:36;3.75;;;0.80;;
45540;SDS011;31265;49.680;8.608;2023-09-19T10:37:09;6.32;;;0.60;;
45540;SDS011;31265;49.680;8.608;2023-09-19T10:39:42;2.15;;;0.68;;
45540;SDS011;31265;49.680;8.608;2023-09-19T10:42:16;2.08;;;0.82;;
45540;SDS011;31265;49.680;8.608;2023-09-19T10:44:50;4.63;;;0.93;;
45540;SDS011;31265;49.680;8.608;2023-09-19T10:47:21;4.88;;;1.15;;
45540;SDS011;31265;49.680;8.608;2023-09-19T10:49:51;3.40;;;0.47;;
45540;SDS011;31265;49.680;8.608;2023-09-19T10:52:24;4.13;;;1.00;;
45540;SDS011;31265;49.680;8.608;2023-09-19T10:54:56;1.33;;;0.32;;
45540;SDS011;31265;49.680;8.608;2023-09-19T10:57:27;5.10;;;0.57;;
45540;SDS011;31265;49.680;8.608;2023-09-19T11:00:02;2.67;;;0.63;;
45540;SDS011;31265;49.680;8.608;2023-09-19T11:06:01;1.60;;;0.63;;
45540;SDS011;31265;49.680;8.608;2023-09-19T11:08:57;2.47;;;0.55;;
45540;SDS011;31265;49.680;8.608;2023-09-19T11:11:49;1.40;;;0.43;;
45540;SDS011;31265;49.680;8.608;2023-09-19T11:14:30;1.58;;;0.60;;
45540;SDS011;31265;49.680;8.608;2023-09-19T11:20:19;2.97;;;0.77;;
45540;SDS011;31265;49.680;8.608;2023-09-19T11:25:51;2.25;;;0.50;;
45540;SDS011;31265;49.680;8.608;2023-09-19T11:28:31;3.40;;;0.43;;
45540;SDS011;31265;49.680;8.608;2023-09-19T11:40:29;2.92;;;0.63;;
45540;SDS011;31265;49.680;8.608;2023-09-19T11:43:00;1.48;;;0.30;;
45540;SDS011;31265;49.680;8.608;2023-09-19T11:46:07;2.22;;;0.95;;
45540;SDS011;31265;49.680;8.608;2023-09-19T11:48:38;1.30;;;0.32;;
45540;SDS011;31265;49.680;8.608;2023-09-19T11:51:16;1.85;;;0.60;;
45540;SDS011;31265;49.680;8.608;2023-09-19T11:53:56;1.75;;;0.50;;
45540;SDS011;31265;49.680;8.608;2023-09-19T11:56:27;0.82;;;0.40;;
45540;SDS011;31265;49.680;8.608;2023-09-19T11:58:57;3.67;;;0.70;;
45540;SDS011;31265;49.680;8.608;2023-09-19T12:01:29;2.50;;;0.60;;
45540;SDS011;31265;49.680;8.608;2023-09-19T12:04:00;2.35;;;0.60;;
45540;SDS011;31265;49.680;8.608;2023-09-19T12:06:32;3.28;;;0.60;;
45540;SDS011;31265;49.680;8.608;2023-09-19T12:09:03;2.28;;;0.75;;
45540;SDS011;31265;49.680;8.608;2023-09-19T12:11:41;1.92;;;0.43;;
45540;SDS011;31265;49.680;8.608;2023-09-19T12:14:12;1.52;;;0.40;;
45540;SDS011;31265;49.680;8.608;2023-09-19T12:16:53;3.30;;;0.60;;
45540;SDS011;31265;49.680;8.608;2023-09-19T12:19:23;3.20;;;0.85;;
45540;SDS011;31265;49.680;8.608;2023-09-19T12:21:55;1.02;;;0.25;;
45540;SDS011;31265;49.680;8.608;2023-09-19T12:24:26;2.15;;;0.60;;
45540;SDS011;31265;49.680;8.608;2023-09-19T12:27:01;2.65;;;0.60;;
45540;SDS011;31265;49.680;8.608;2023-09-19T12:29:43;4.53;;;1.02;;
45540;SDS011;31265;49.680;8.608;2023-09-19T12:32:12;1.38;;;0.40;;
45540;SDS011;31265;49.680;8.608;2023-09-19T12:34:50;3.40;;;0.60;;
45540;SDS011;31265;49.680;8.608;2023-09-19T12:37:20;3.17;;;0.50;;
45540;SDS011;31265;49.680;8.608;2023-09-19T12:39:50;1.52;;;0.38;;
45540;SDS011;31265;49.680;8.608;2023-09-19T12:42:21;3.70;;;0.68;;
45540;SDS011;31265;49.680;8.608;2023-09-19T12:44:53;1.33;;;0.20;;
45540;SDS011;31265;49.680;8.608;2023-09-19T12:47:24;1.80;;;0.60;;
45540;SDS011;31265;49.680;8.608;2023-09-19T12:50:06;2.95;;;0.38;;
45540;SDS011;31265;49.680;8.608;2023-09-19T12:52:40;1.42;;;0.30;;
45540;SDS011;31265;49.680;8.608;2023-09-19T12:55:19;1.13;;;0.38;;
45540;SDS011;31265;49.680;8.608;2023-09-19T12:57:58;2.72;;;0.40;;
45540;SDS011;31265;49.680;8.608;2023-09-19T13:00:34;1.48;;;0.52;;
45540;SDS011;31265;49.680;8.608;2023-09-19T13:03:16;1.92;;;0.52;;
45540;SDS011;31265;49.680;8.608;2023-09-19T13:05:52;1.02;;;0.35;;
45540;SDS011;31265;49.680;8.608;2023-09-19T13:08:26;1.08;;;0.55;;
45540;SDS011;31265;49.680;8.608;2023-09-19T13:13:49;5.53;;;0.55;;
45540;SDS011;31265;49.680;8.608;2023-09-19T13:19:37;1.65;;;0.47;;
45540;SDS011;31265;49.680;8.608;2023-09-19T13:25:08;1.35;;;0.30;;
45540;SDS011;31265;49.680;8.608;2023-09-19T13:27:41;1.45;;;0.65;;
45540;SDS011;31265;49.680;8.608;2023-09-19T13:30:11;1.67;;;0.60;;
45540;SDS011;31265;49.680;8.608;2023-09-19T13:32:42;2.78;;;0.43;;
45540;SDS011;31265;49.680;8.608;2023-09-19T13:35:10;1.60;;;0.60;;
45540;SDS011;31265;49.680;8.608;2023-09-19T13:37:39;2.63;;;0.50;;
45540;SDS011;31265;49.680;8.608;2023-09-19T13:40:10;1.40;;;0.38;;
45540;SDS011;31265;49.680;8.608;2023-09-19T13:42:40;1.95;;;0.50;;
45540;SDS011;31265;49.680;8.608;2023-09-19T13:45:10;2.50;;;0.32;;
45540;SDS011;31265;49.680;8.608;2023-09-19T13:47:44;1.63;;;0.32;;
45540;SDS011;31265;49.680;8.608;2023-09-19T13:50:13;1.25;;;0.38;;
45540;SDS011;31265;49.680;8.608;2023-09-19T13:52:42;1.55;;;0.40;;
45540;SDS011;31265;49.680;8.608;2023-09-19T13:55:10;2.45;;;0.50;;
45540;SDS011;31265;49.680;8.608;2023-09-19T13:57:42;1.17;;;0.43;;
45540;SDS011;31265;49.680;8.608;2023-09-19T14:00:11;5.78;;;0.90;;
45540;SDS011;31265;49.680;8.608;2023-09-19T14:02:44;1.55;;;0.40;;
45540;SDS011;31265;49.680;8.608;2023-09-19T14:05:13;5.30;;;0.63;;
45540;SDS011;31265;49.680;8.608;2023-09-19T14:07:43;0.93;;;0.40;;
45540;SDS011;31265;49.680;8.608;2023-09-19T14:10:12;1.63;;;0.60;;
45540;SDS011;31265;49.680;8.608;2023-09-19T14:12:44;1.15;;;0.40;;
45540;SDS011;31265;49.680;8.608;2023-09-19T14:15:13;0.68;;;0.30;;
45540;SDS011;31265;49.680;8.608;2023-09-19T14:17:41;2.55;;;0.40;;
45540;SDS011;31265;49.680;8.608;2023-09-19T14:20:14;1.27;;;0.30;;
45540;SDS011;31265;49.680;8.608;2023-09-19T14:22:42;2.15;;;0.80;;
45540;SDS011;31265;49.680;8.608;2023-09-19T14:25:11;1.25;;;0.15;;
45540;SDS011;31265;49.680;8.608;2023-09-19T14:27:40;0.55;;;0.15;;
45540;SDS011;31265;49.680;8.608;2023-09-19T14:30:09;2.00;;;0.60;;
45540;SDS011;31265;49.680;8.608;2023-09-19T14:32:39;2.33;;;0.40;;
45540;SDS011;31265;49.680;8.608;2023-09-19T14:35:08;2.38;;;0.45;;
45540;SDS011;31265;49.680;8.608;2023-09-19T14:37:39;3.35;;;0.50;;
45540;SDS011;31265;49.680;8.608;2023-09-19T14:40:08;2.33;;;0.55;;
45540;SDS011;31265;49.680;8.608;2023-09-19T14:42:38;3.50;;;0.63;;
45540;SDS011;31265;49.680;8.608;2023-09-19T14:45:08;2.70;;;0.77;;
45540;SDS011;31265;49.680;8.608;2023-09-19T14:47:38;1.25;;;0.32;;
45540;SDS011;31265;49.680;8.608;2023-09-19T14:50:07;1.07;;;0.40;;
45540;SDS011;31265;49.680;8.608;2023-09-19T14:52:36;1.67;;;0.50;;
45540;SDS011;31265;49.680;8.608;2023-09-19T14:55:08;2.67;;;0.63;;
45540;SDS011;31265;49.680;8.608;2023-09-19T14:57:42;0.20;;;0.10;;
45540;SDS011;31265;49.680;8.608;2023-09-19T15:00:13;2.38;;;0.40;;
45540;SDS011;31265;49.680;8.608;2023-09-19T15:02:44;0.68;;;0.25;;
45540;SDS011;31265;49.680;8.608;2023-09-19T15:05:15;1.95;;;0.20;;
45540;SDS011;31265;49.680;8.608;2023-09-19T15:07:47;0.93;;;0.45;;
45540;SDS011;31265;49.680;8.608;2023-09-19T15:10:19;1.00;;;0.30;;
45540;SDS011;31265;49.680;8.608;2023-09-19T15:12:48;6.97;;;0.98;;
45540;SDS011;31265;49.680;8.608;2023-09-19T15:15:17;1.98;;;0.50;;
45540;SDS011;31265;49.680;8.608;2023-09-19T15:17:46;1.65;;;0.50;;
45540;SDS011;31265;49.680;8.608;2023-09-19T15:20:15;0.63;;;0.20;;
45540;SDS011;31265;49.680;8.608;2023-09-19T15:22:44;0.88;;;0.32;;
45540;SDS011;31265;49.680;8.608;2023-09-19T15:25:15;0.57;;;0.28;;
45540;SDS011;31265;49.680;8.608;2023-09-19T15:27:45;1.55;;;0.32;;
45540;SDS011;31265;49.680;8.608;2023-09-19T15:30:13;0.77;;;0.30;;
45540;SDS011;31265;49.680;8.608;2023-09-19T15:32:43;1.98;;;0.30;;
45540;SDS011;31265;49.680;8.608;2023-09-19T15:35:11;1.23;;;0.15;;
45540;SDS011;31265;49.680;8.608;2023-09-19T15:37:41;0.57;;;0.20;;
45540;SDS011;31265;49.680;8.608;2023-09-19T15:40:09;2.38;;;0.70;;
45540;SDS011;31265;49.680;8.608;2023-09-19T15:42:39;0.98;;;0.30;;
45540;SDS011;31265;49.680;8.608;2023-09-19T15:45:09;0.93;;;0.27;;
45540;SDS011;31265;49.680;8.608;2023-09-19T15:47:38;0.70;;;0.20;;
45540;SDS011;31265;49.680;8.608;2023-09-19T15:50:07;1.70;;;0.20;;
45540;SDS011;31265;49.680;8.608;2023-09-19T15:52:40;1.08;;;0.30;;
45540;SDS011;31265;49.680;8.608;2023-09-19T15:55:09;2.35;;;0.60;;
45540;SDS011;31265;49.680;8.608;2023-09-19T15:57:39;1.05;;;0.30;;